メインページ
METAR-TAF:

METAR-TAF

空港 :

東京国際空港

東京 / 羽田国際空港, 日本

緯度: 35-33N, 経度: 139-47E, 海抜: 5m

現時点の気象観測

当レポートは28分前の14:00(UTC)に作成
南/南西の風 13kt
気温 28°C
湿度 84%
気圧 1011 hPa
視程10km以上
高度1000ftの雲はほとんどない

METAR: RJTT 201400Z 20013KT 9999 FEW010 28/25 Q1011 NOSIG RMK 1CU010 A2987

時間: 23:28 (14:28 UTC)

予報

当レポートは3時間23分前の11:05(UTC)に作成
予報は20日の 12時(UTC)から 21日の 18時(UTC)まで有効
南/南西の風 18kt
視程10km以上
高度800ftの雲はほとんどない
20日の 19時(UTC)から 20日の 21時(UTC)まで徐々に
南西の風 8kt
21日の 00時(UTC)から 21日の 03時(UTC)まで徐々に
の風 18kt

TAF: RJTT 201105Z 2012/2118 20018KT 9999 FEW008 BECMG 2019/2021 22008KT BECMG 2100/2103 18018KT

4,000以上の空港の気象観測と天気予報(METAR報とTAF報)

利用可能な観測所は地図上に黄色い丸と赤い丸で示す。

丸の上にカーソルを重ねると観測所名を参照できる。

次にクリックすると気象観測と天気予報を参照できる。

マップの切り替え:黒色「×」印の緑ボタンをクリックして拡大、「-」印の緑ボタンをクリックして縮小、緑色の三角印をクリックして隣りの地図に切り替え


METAR-TAF: